sensor_id;sensor_type;location;lat;lon;timestamp;temperature;humidity
21487;DHT22;10905;50.822;4.336;2022-08-19T00:00:38;21.80;99.90
21487;DHT22;10905;50.822;4.336;2022-08-19T00:03:04;21.70;99.90
21487;DHT22;10905;50.822;4.336;2022-08-19T00:05:30;21.70;99.90
21487;DHT22;10905;50.822;4.336;2022-08-19T00:07:56;21.60;99.90
21487;DHT22;10905;50.822;4.336;2022-08-19T00:10:22;21.60;99.90
21487;DHT22;10905;50.822;4.336;2022-08-19T00:12:49;21.60;99.90
21487;DHT22;10905;50.822;4.336;2022-08-19T00:15:16;21.60;99.90
21487;DHT22;10905;50.822;4.336;2022-08-19T00:17:42;21.70;99.90
21487;DHT22;10905;50.822;4.336;2022-08-19T00:20:10;21.80;99.90
21487;DHT22;10905;50.822;4.336;2022-08-19T00:22:36;21.90;99.90
21487;DHT22;10905;50.822;4.336;2022-08-19T00:25:01;21.90;99.90
21487;DHT22;10905;50.822;4.336;2022-08-19T00:27:27;21.90;99.90
21487;DHT22;10905;50.822;4.336;2022-08-19T00:29:53;21.70;99.90
21487;DHT22;10905;50.822;4.336;2022-08-19T00:32:18;21.80;99.90
21487;DHT22;10905;50.822;4.336;2022-08-19T00:34:44;21.70;99.90
21487;DHT22;10905;50.822;4.336;2022-08-19T00:37:10;21.70;99.90
21487;DHT22;10905;50.822;4.336;2022-08-19T00:39:35;21.70;99.90
21487;DHT22;10905;50.822;4.336;2022-08-19T00:42:01;21.70;99.90
21487;DHT22;10905;50.822;4.336;2022-08-19T00:44:27;21.60;99.90
21487;DHT22;10905;50.822;4.336;2022-08-19T00:46:54;21.60;99.90
21487;DHT22;10905;50.822;4.336;2022-08-19T00:49:22;21.60;99.90
21487;DHT22;10905;50.822;4.336;2022-08-19T00:51:52;21.80;99.90
21487;DHT22;10905;50.822;4.336;2022-08-19T00:54:18;21.80;99.90
21487;DHT22;10905;50.822;4.336;2022-08-19T00:56:44;21.80;99.90
21487;DHT22;10905;50.822;4.336;2022-08-19T00:59:10;21.80;99.90
21487;DHT22;10905;50.822;4.336;2022-08-19T01:01:36;21.60;99.90
21487;DHT22;10905;50.822;4.336;2022-08-19T01:04:02;21.50;99.90
21487;DHT22;10905;50.822;4.336;2022-08-19T01:06:27;21.60;99.90
21487;DHT22;10905;50.822;4.336;2022-08-19T01:08:53;21.50;99.90
21487;DHT22;10905;50.822;4.336;2022-08-19T01:11:19;21.50;99.90
21487;DHT22;10905;50.822;4.336;2022-08-19T01:13:45;21.30;99.90
21487;DHT22;10905;50.822;4.336;2022-08-19T01:16:11;21.30;99.90
21487;DHT22;10905;50.822;4.336;2022-08-19T01:18:38;21.20;99.90
21487;DHT22;10905;50.822;4.336;2022-08-19T01:21:09;21.20;99.90
21487;DHT22;10905;50.822;4.336;2022-08-19T01:23:36;21.20;99.90
21487;DHT22;10905;50.822;4.336;2022-08-19T01:26:18;21.10;99.90
21487;DHT22;10905;50.822;4.336;2022-08-19T01:28:45;21.10;99.90
21487;DHT22;10905;50.822;4.336;2022-08-19T01:31:16;20.90;99.90
21487;DHT22;10905;50.822;4.336;2022-08-19T01:33:41;20.90;99.90
21487;DHT22;10905;50.822;4.336;2022-08-19T01:36:08;20.90;99.90
21487;DHT22;10905;50.822;4.336;2022-08-19T01:38:35;20.80;99.90
21487;DHT22;10905;50.822;4.336;2022-08-19T01:41:01;20.90;99.90
21487;DHT22;10905;50.822;4.336;2022-08-19T01:43:27;20.90;99.90
21487;DHT22;10905;50.822;4.336;2022-08-19T01:45:52;20.90;99.90
21487;DHT22;10905;50.822;4.336;2022-08-19T01:48:18;20.90;99.90
21487;DHT22;10905;50.822;4.336;2022-08-19T01:50:43;20.80;99.90
21487;DHT22;10905;50.822;4.336;2022-08-19T01:53:10;20.80;99.90
21487;DHT22;10905;50.822;4.336;2022-08-19T01:55:37;20.80;99.90
21487;DHT22;10905;50.822;4.336;2022-08-19T01:58:03;20.80;99.90
21487;DHT22;10905;50.822;4.336;2022-08-19T02:00:30;20.80;99.90
21487;DHT22;10905;50.822;4.336;2022-08-19T02:02:56;20.70;99.90
21487;DHT22;10905;50.822;4.336;2022-08-19T02:05:22;20.70;99.90
21487;DHT22;10905;50.822;4.336;2022-08-19T02:07:48;20.70;99.90
21487;DHT22;10905;50.822;4.336;2022-08-19T02:10:16;20.60;99.90
21487;DHT22;10905;50.822;4.336;2022-08-19T02:12:42;20.60;99.90
21487;DHT22;10905;50.822;4.336;2022-08-19T02:15:08;20.40;99.90
21487;DHT22;10905;50.822;4.336;2022-08-19T02:17:35;20.40;99.90
21487;DHT22;10905;50.822;4.336;2022-08-19T02:20:01;20.30;99.90
21487;DHT22;10905;50.822;4.336;2022-08-19T02:22:27;20.30;99.90
21487;DHT22;10905;50.822;4.336;2022-08-19T02:24:53;20.30;99.90
21487;DHT22;10905;50.822;4.336;2022-08-19T02:27:19;20.30;99.90
21487;DHT22;10905;50.822;4.336;2022-08-19T02:29:48;20.20;99.90
21487;DHT22;10905;50.822;4.336;2022-08-19T02:32:14;20.20;99.90
21487;DHT22;10905;50.822;4.336;2022-08-19T02:34:40;20.20;99.90
21487;DHT22;10905;50.822;4.336;2022-08-19T02:37:05;20.20;99.90
21487;DHT22;10905;50.822;4.336;2022-08-19T02:39:51;20.00;99.90
21487;DHT22;10905;50.822;4.336;2022-08-19T02:42:17;20.00;99.90
21487;DHT22;10905;50.822;4.336;2022-08-19T02:44:42;20.00;99.90
21487;DHT22;10905;50.822;4.336;2022-08-19T02:47:08;20.10;99.90
21487;DHT22;10905;50.822;4.336;2022-08-19T02:49:34;20.10;99.90
21487;DHT22;10905;50.822;4.336;2022-08-19T02:52:00;20.00;99.90
21487;DHT22;10905;50.822;4.336;2022-08-19T02:54:25;20.00;99.90
21487;DHT22;10905;50.822;4.336;2022-08-19T02:56:51;19.90;99.90
21487;DHT22;10905;50.822;4.336;2022-08-19T02:59:16;19.90;99.90
21487;DHT22;10905;50.822;4.336;2022-08-19T03:01:42;19.90;99.90
21487;DHT22;10905;50.822;4.336;2022-08-19T03:04:08;19.90;99.90
21487;DHT22;10905;50.822;4.336;2022-08-19T03:06:36;19.80;99.90
21487;DHT22;10905;50.822;4.336;2022-08-19T03:09:02;19.90;99.90
21487;DHT22;10905;50.822;4.336;2022-08-19T03:11:29;19.90;99.90
21487;DHT22;10905;50.822;4.336;2022-08-19T03:13:55;19.80;99.90
21487;DHT22;10905;50.822;4.336;2022-08-19T03:16:21;19.80;99.90
21487;DHT22;10905;50.822;4.336;2022-08-19T03:18:47;19.70;99.90
21487;DHT22;10905;50.822;4.336;2022-08-19T03:21:20;19.60;99.90
21487;DHT22;10905;50.822;4.336;2022-08-19T03:23:46;19.60;99.90
21487;DHT22;10905;50.822;4.336;2022-08-19T03:26:12;19.60;99.90
21487;DHT22;10905;50.822;4.336;2022-08-19T03:28:38;19.60;99.90
21487;DHT22;10905;50.822;4.336;2022-08-19T03:31:05;19.70;99.90
21487;DHT22;10905;50.822;4.336;2022-08-19T03:33:32;19.70;99.90
21487;DHT22;10905;50.822;4.336;2022-08-19T03:36:02;19.70;99.90
21487;DHT22;10905;50.822;4.336;2022-08-19T03:38:28;19.70;99.90
21487;DHT22;10905;50.822;4.336;2022-08-19T03:40:53;19.70;99.90
21487;DHT22;10905;50.822;4.336;2022-08-19T03:43:19;19.50;99.90
21487;DHT22;10905;50.822;4.336;2022-08-19T03:45:44;19.40;99.90
21487;DHT22;10905;50.822;4.336;2022-08-19T03:48:10;19.40;99.90
21487;DHT22;10905;50.822;4.336;2022-08-19T03:50:39;19.40;99.90
21487;DHT22;10905;50.822;4.336;2022-08-19T03:53:04;19.40;99.90
21487;DHT22;10905;50.822;4.336;2022-08-19T03:55:30;19.40;99.90
21487;DHT22;10905;50.822;4.336;2022-08-19T03:57:55;19.40;99.90
21487;DHT22;10905;50.822;4.336;2022-08-19T04:00:21;19.50;99.90
21487;DHT22;10905;50.822;4.336;2022-08-19T04:02:47;19.40;99.90
21487;DHT22;10905;50.822;4.336;2022-08-19T04:05:12;19.30;99.90
21487;DHT22;10905;50.822;4.336;2022-08-19T04:07:39;19.30;99.90
21487;DHT22;10905;50.822;4.336;2022-08-19T04:10:05;19.20;99.90
21487;DHT22;10905;50.822;4.336;2022-08-19T04:12:30;19.30;99.90
21487;DHT22;10905;50.822;4.336;2022-08-19T04:14:56;19.30;99.90
21487;DHT22;10905;50.822;4.336;2022-08-19T04:17:22;19.30;99.90
21487;DHT22;10905;50.822;4.336;2022-08-19T04:19:47;19.20;99.90
21487;DHT22;10905;50.822;4.336;2022-08-19T04:22:13;19.20;99.90
21487;DHT22;10905;50.822;4.336;2022-08-19T04:24:38;19.20;99.90
21487;DHT22;10905;50.822;4.336;2022-08-19T04:27:04;19.20;99.90
21487;DHT22;10905;50.822;4.336;2022-08-19T04:29:31;19.10;99.90
21487;DHT22;10905;50.822;4.336;2022-08-19T04:31:57;19.00;99.90
21487;DHT22;10905;50.822;4.336;2022-08-19T04:34:24;18.90;99.90
21487;DHT22;10905;50.822;4.336;2022-08-19T04:36:50;18.90;99.90
21487;DHT22;10905;50.822;4.336;2022-08-19T04:39:18;18.90;99.90
21487;DHT22;10905;50.822;4.336;2022-08-19T04:41:44;18.80;99.90
21487;DHT22;10905;50.822;4.336;2022-08-19T04:44:30;18.90;99.90
21487;DHT22;10905;50.822;4.336;2022-08-19T04:46:56;18.90;99.90
21487;DHT22;10905;50.822;4.336;2022-08-19T04:49:22;18.70;99.90
21487;DHT22;10905;50.822;4.336;2022-08-19T04:51:48;18.70;99.90
21487;DHT22;10905;50.822;4.336;2022-08-19T04:54:15;18.70;99.90
21487;DHT22;10905;50.822;4.336;2022-08-19T04:56:41;18.70;99.90
21487;DHT22;10905;50.822;4.336;2022-08-19T04:59:06;18.80;99.90
21487;DHT22;10905;50.822;4.336;2022-08-19T05:01:33;18.70;99.90
21487;DHT22;10905;50.822;4.336;2022-08-19T05:04:00;18.70;99.90
21487;DHT22;10905;50.822;4.336;2022-08-19T05:06:27;18.80;99.90
21487;DHT22;10905;50.822;4.336;2022-08-19T05:08:54;18.80;99.90
21487;DHT22;10905;50.822;4.336;2022-08-19T05:11:26;18.80;99.90
21487;DHT22;10905;50.822;4.336;2022-08-19T05:13:51;18.80;99.90
21487;DHT22;10905;50.822;4.336;2022-08-19T05:16:18;18.80;99.90
21487;DHT22;10905;50.822;4.336;2022-08-19T05:18:44;18.70;99.90
21487;DHT22;10905;50.822;4.336;2022-08-19T05:21:28;18.70;99.90
21487;DHT22;10905;50.822;4.336;2022-08-19T05:24:13;18.70;99.90
21487;DHT22;10905;50.822;4.336;2022-08-19T05:26:40;18.70;99.90
21487;DHT22;10905;50.822;4.336;2022-08-19T05:29:06;18.70;99.90
21487;DHT22;10905;50.822;4.336;2022-08-19T05:31:32;18.70;99.90
21487;DHT22;10905;50.822;4.336;2022-08-19T05:33:58;18.70;99.90
21487;DHT22;10905;50.822;4.336;2022-08-19T05:36:24;18.80;99.90
21487;DHT22;10905;50.822;4.336;2022-08-19T05:38:50;18.90;99.90
21487;DHT22;10905;50.822;4.336;2022-08-19T05:41:17;18.80;99.90
21487;DHT22;10905;50.822;4.336;2022-08-19T05:43:43;18.80;99.90
21487;DHT22;10905;50.822;4.336;2022-08-19T05:46:08;19.00;99.90
21487;DHT22;10905;50.822;4.336;2022-08-19T05:48:41;19.00;99.90
21487;DHT22;10905;50.822;4.336;2022-08-19T05:51:06;19.10;99.90
21487;DHT22;10905;50.822;4.336;2022-08-19T05:53:33;19.20;99.90
21487;DHT22;10905;50.822;4.336;2022-08-19T05:56:09;19.20;99.90
21487;DHT22;10905;50.822;4.336;2022-08-19T05:58:36;19.30;99.90
21487;DHT22;10905;50.822;4.336;2022-08-19T06:01:02;19.30;99.90
21487;DHT22;10905;50.822;4.336;2022-08-19T06:03:31;19.40;99.90
21487;DHT22;10905;50.822;4.336;2022-08-19T06:05:57;19.40;99.90
21487;DHT22;10905;50.822;4.336;2022-08-19T06:08:24;19.40;99.90
21487;DHT22;10905;50.822;4.336;2022-08-19T06:10:50;19.60;99.90
21487;DHT22;10905;50.822;4.336;2022-08-19T06:13:15;19.80;99.90
21487;DHT22;10905;50.822;4.336;2022-08-19T06:15:41;19.80;99.90
21487;DHT22;10905;50.822;4.336;2022-08-19T06:18:09;19.80;99.90
21487;DHT22;10905;50.822;4.336;2022-08-19T06:20:34;19.90;99.90
21487;DHT22;10905;50.822;4.336;2022-08-19T06:23:00;20.00;99.90
21487;DHT22;10905;50.822;4.336;2022-08-19T06:25:25;20.00;99.90
21487;DHT22;10905;50.822;4.336;2022-08-19T06:27:51;19.90;99.90
21487;DHT22;10905;50.822;4.336;2022-08-19T06:30:18;20.00;99.90
21487;DHT22;10905;50.822;4.336;2022-08-19T06:32:43;20.20;99.90
21487;DHT22;10905;50.822;4.336;2022-08-19T06:35:09;20.10;99.90
21487;DHT22;10905;50.822;4.336;2022-08-19T06:37:35;20.30;99.90
21487;DHT22;10905;50.822;4.336;2022-08-19T06:40:01;20.20;99.90
21487;DHT22;10905;50.822;4.336;2022-08-19T06:42:27;20.30;99.90
21487;DHT22;10905;50.822;4.336;2022-08-19T06:44:52;20.50;99.90
21487;DHT22;10905;50.822;4.336;2022-08-19T06:47:19;20.60;99.90
21487;DHT22;10905;50.822;4.336;2022-08-19T06:49:45;20.70;99.90
21487;DHT22;10905;50.822;4.336;2022-08-19T06:52:11;20.60;99.90
21487;DHT22;10905;50.822;4.336;2022-08-19T06:54:40;20.70;99.90
21487;DHT22;10905;50.822;4.336;2022-08-19T06:57:07;20.80;99.90
21487;DHT22;10905;50.822;4.336;2022-08-19T06:59:34;20.80;99.90
21487;DHT22;10905;50.822;4.336;2022-08-19T07:02:10;20.70;99.90
21487;DHT22;10905;50.822;4.336;2022-08-19T07:04:36;20.80;99.90
21487;DHT22;10905;50.822;4.336;2022-08-19T07:07:05;20.80;99.90
21487;DHT22;10905;50.822;4.336;2022-08-19T07:09:32;20.80;99.90
21487;DHT22;10905;50.822;4.336;2022-08-19T07:11:58;20.70;99.90
21487;DHT22;10905;50.822;4.336;2022-08-19T07:14:25;20.60;99.90
21487;DHT22;10905;50.822;4.336;2022-08-19T07:16:51;20.70;99.90
21487;DHT22;10905;50.822;4.336;2022-08-19T07:19:19;20.80;99.90
21487;DHT22;10905;50.822;4.336;2022-08-19T07:21:49;20.80;99.90
21487;DHT22;10905;50.822;4.336;2022-08-19T07:24:18;20.90;99.90
21487;DHT22;10905;50.822;4.336;2022-08-19T07:26:44;21.00;99.90
21487;DHT22;10905;50.822;4.336;2022-08-19T07:29:10;21.10;99.90
21487;DHT22;10905;50.822;4.336;2022-08-19T07:31:36;21.20;99.90
21487;DHT22;10905;50.822;4.336;2022-08-19T07:34:06;21.30;99.90
21487;DHT22;10905;50.822;4.336;2022-08-19T07:36:32;21.40;99.90
21487;DHT22;10905;50.822;4.336;2022-08-19T07:38:59;21.60;99.90
21487;DHT22;10905;50.822;4.336;2022-08-19T07:41:26;21.40;99.90
21487;DHT22;10905;50.822;4.336;2022-08-19T07:43:54;21.50;99.90
21487;DHT22;10905;50.822;4.336;2022-08-19T07:46:19;21.60;99.90
21487;DHT22;10905;50.822;4.336;2022-08-19T07:48:46;21.70;99.90
21487;DHT22;10905;50.822;4.336;2022-08-19T07:51:12;21.80;99.90
21487;DHT22;10905;50.822;4.336;2022-08-19T07:53:38;21.70;99.90
21487;DHT22;10905;50.822;4.336;2022-08-19T07:56:04;21.70;99.90
21487;DHT22;10905;50.822;4.336;2022-08-19T07:58:30;21.90;99.90
21487;DHT22;10905;50.822;4.336;2022-08-19T08:00:56;21.90;99.90
21487;DHT22;10905;50.822;4.336;2022-08-19T08:03:22;22.00;99.90
21487;DHT22;10905;50.822;4.336;2022-08-19T08:06:10;22.00;99.90
21487;DHT22;10905;50.822;4.336;2022-08-19T08:08:55;22.10;99.90
21487;DHT22;10905;50.822;4.336;2022-08-19T08:11:45;21.80;99.90
21487;DHT22;10905;50.822;4.336;2022-08-19T08:14:14;21.80;99.90
21487;DHT22;10905;50.822;4.336;2022-08-19T08:16:40;21.70;99.90
21487;DHT22;10905;50.822;4.336;2022-08-19T08:19:07;21.80;99.90
21487;DHT22;10905;50.822;4.336;2022-08-19T08:21:33;21.90;99.90
21487;DHT22;10905;50.822;4.336;2022-08-19T08:23:59;22.00;99.90
21487;DHT22;10905;50.822;4.336;2022-08-19T08:26:25;22.20;99.90
21487;DHT22;10905;50.822;4.336;2022-08-19T08:28:51;22.40;99.90
21487;DHT22;10905;50.822;4.336;2022-08-19T08:31:16;22.40;99.90
21487;DHT22;10905;50.822;4.336;2022-08-19T08:33:43;22.40;99.90
21487;DHT22;10905;50.822;4.336;2022-08-19T08:36:09;22.60;99.90
21487;DHT22;10905;50.822;4.336;2022-08-19T08:38:35;22.70;99.90
21487;DHT22;10905;50.822;4.336;2022-08-19T08:41:03;22.70;99.90
21487;DHT22;10905;50.822;4.336;2022-08-19T08:43:35;22.70;99.90
21487;DHT22;10905;50.822;4.336;2022-08-19T08:46:16;22.70;99.90
21487;DHT22;10905;50.822;4.336;2022-08-19T08:51:18;22.80;99.90
21487;DHT22;10905;50.822;4.336;2022-08-19T08:53:46;22.60;99.90
21487;DHT22;10905;50.822;4.336;2022-08-19T08:56:13;22.20;99.90
21487;DHT22;10905;50.822;4.336;2022-08-19T08:58:45;22.30;99.90
21487;DHT22;10905;50.822;4.336;2022-08-19T09:01:12;22.40;99.90
21487;DHT22;10905;50.822;4.336;2022-08-19T09:03:39;22.40;99.90
21487;DHT22;10905;50.822;4.336;2022-08-19T09:06:21;22.40;99.90
21487;DHT22;10905;50.822;4.336;2022-08-19T09:08:52;22.60;99.90
21487;DHT22;10905;50.822;4.336;2022-08-19T09:11:31;22.70;99.90
21487;DHT22;10905;50.822;4.336;2022-08-19T09:16:30;22.70;99.90
21487;DHT22;10905;50.822;4.336;2022-08-19T09:18:57;22.80;99.90
21487;DHT22;10905;50.822;4.336;2022-08-19T09:21:24;22.70;99.90
21487;DHT22;10905;50.822;4.336;2022-08-19T09:23:51;22.80;99.90
21487;DHT22;10905;50.822;4.336;2022-08-19T09:26:17;22.80;99.90
21487;DHT22;10905;50.822;4.336;2022-08-19T09:28:44;22.90;99.90
21487;DHT22;10905;50.822;4.336;2022-08-19T09:31:10;22.60;99.90
21487;DHT22;10905;50.822;4.336;2022-08-19T09:33:36;22.60;99.90
21487;DHT22;10905;50.822;4.336;2022-08-19T09:36:03;22.60;99.90
21487;DHT22;10905;50.822;4.336;2022-08-19T09:38:28;22.40;99.90
21487;DHT22;10905;50.822;4.336;2022-08-19T09:40:54;22.70;99.90
21487;DHT22;10905;50.822;4.336;2022-08-19T09:43:19;22.90;99.90
21487;DHT22;10905;50.822;4.336;2022-08-19T09:45:45;22.80;99.90
21487;DHT22;10905;50.822;4.336;2022-08-19T09:48:10;22.90;99.90
21487;DHT22;10905;50.822;4.336;2022-08-19T09:50:36;22.70;99.90
21487;DHT22;10905;50.822;4.336;2022-08-19T09:53:03;22.80;99.90
21487;DHT22;10905;50.822;4.336;2022-08-19T09:55:31;22.90;99.90
21487;DHT22;10905;50.822;4.336;2022-08-19T09:57:56;23.10;99.90
21487;DHT22;10905;50.822;4.336;2022-08-19T10:00:22;23.30;99.90
21487;DHT22;10905;50.822;4.336;2022-08-19T10:02:47;23.50;99.90
21487;DHT22;10905;50.822;4.336;2022-08-19T10:05:13;23.60;99.90
21487;DHT22;10905;50.822;4.336;2022-08-19T10:07:57;23.70;99.90
21487;DHT22;10905;50.822;4.336;2022-08-19T10:10:22;23.60;99.90
21487;DHT22;10905;50.822;4.336;2022-08-19T10:12:49;23.60;99.90
21487;DHT22;10905;50.822;4.336;2022-08-19T10:15:14;23.80;99.90
21487;DHT22;10905;50.822;4.336;2022-08-19T10:17:40;23.70;99.90
21487;DHT22;10905;50.822;4.336;2022-08-19T10:20:06;23.50;99.90
21487;DHT22;10905;50.822;4.336;2022-08-19T10:22:32;23.40;99.90
21487;DHT22;10905;50.822;4.336;2022-08-19T10:24:57;23.40;99.90
21487;DHT22;10905;50.822;4.336;2022-08-19T10:27:23;23.40;99.90
21487;DHT22;10905;50.822;4.336;2022-08-19T10:29:49;23.40;99.90
21487;DHT22;10905;50.822;4.336;2022-08-19T10:32:14;23.40;99.90
21487;DHT22;10905;50.822;4.336;2022-08-19T10:34:40;23.50;99.90
21487;DHT22;10905;50.822;4.336;2022-08-19T10:37:05;23.50;99.90
21487;DHT22;10905;50.822;4.336;2022-08-19T10:39:32;23.40;99.90
21487;DHT22;10905;50.822;4.336;2022-08-19T10:41:58;23.40;99.90
21487;DHT22;10905;50.822;4.336;2022-08-19T10:44:24;23.60;99.90
21487;DHT22;10905;50.822;4.336;2022-08-19T10:46:49;23.70;99.90
21487;DHT22;10905;50.822;4.336;2022-08-19T10:49:15;23.80;99.90
21487;DHT22;10905;50.822;4.336;2022-08-19T10:51:41;24.00;99.90
21487;DHT22;10905;50.822;4.336;2022-08-19T10:54:25;24.10;99.90
21487;DHT22;10905;50.822;4.336;2022-08-19T10:57:11;24.00;99.90
21487;DHT22;10905;50.822;4.336;2022-08-19T10:59:37;23.90;99.90
21487;DHT22;10905;50.822;4.336;2022-08-19T11:02:04;23.80;99.90
21487;DHT22;10905;50.822;4.336;2022-08-19T11:04:30;23.60;99.90
21487;DHT22;10905;50.822;4.336;2022-08-19T11:06:57;23.50;99.90
21487;DHT22;10905;50.822;4.336;2022-08-19T11:09:23;23.60;99.90
21487;DHT22;10905;50.822;4.336;2022-08-19T11:11:54;23.80;99.90
21487;DHT22;10905;50.822;4.336;2022-08-19T11:14:21;23.90;99.90
21487;DHT22;10905;50.822;4.336;2022-08-19T11:16:48;23.80;99.90
21487;DHT22;10905;50.822;4.336;2022-08-19T11:19:14;23.70;99.90
21487;DHT22;10905;50.822;4.336;2022-08-19T11:21:42;23.50;99.90
21487;DHT22;10905;50.822;4.336;2022-08-19T11:24:10;23.30;99.90
21487;DHT22;10905;50.822;4.336;2022-08-19T11:26:37;23.20;99.90
21487;DHT22;10905;50.822;4.336;2022-08-19T11:29:03;23.10;99.90
21487;DHT22;10905;50.822;4.336;2022-08-19T11:31:30;23.00;99.90
21487;DHT22;10905;50.822;4.336;2022-08-19T11:33:57;23.10;99.90
21487;DHT22;10905;50.822;4.336;2022-08-19T11:36:22;23.20;99.90
21487;DHT22;10905;50.822;4.336;2022-08-19T11:38:49;23.30;99.90
21487;DHT22;10905;50.822;4.336;2022-08-19T11:41:15;23.50;99.90
21487;DHT22;10905;50.822;4.336;2022-08-19T11:43:41;23.70;99.90
21487;DHT22;10905;50.822;4.336;2022-08-19T11:46:10;23.70;99.90
21487;DHT22;10905;50.822;4.336;2022-08-19T11:48:37;23.80;99.90
21487;DHT22;10905;50.822;4.336;2022-08-19T11:51:07;24.00;99.90
21487;DHT22;10905;50.822;4.336;2022-08-19T11:53:33;24.10;99.90
21487;DHT22;10905;50.822;4.336;2022-08-19T11:55:59;24.40;99.90
21487;DHT22;10905;50.822;4.336;2022-08-19T11:58:25;24.70;99.90
21487;DHT22;10905;50.822;4.336;2022-08-19T12:00:51;24.80;99.90
21487;DHT22;10905;50.822;4.336;2022-08-19T12:03:16;25.10;99.90
21487;DHT22;10905;50.822;4.336;2022-08-19T12:05:43;25.40;99.90
21487;DHT22;10905;50.822;4.336;2022-08-19T12:08:09;25.70;99.90
21487;DHT22;10905;50.822;4.336;2022-08-19T12:10:35;25.60;99.90
21487;DHT22;10905;50.822;4.336;2022-08-19T12:13:00;25.80;99.90
21487;DHT22;10905;50.822;4.336;2022-08-19T12:15:27;25.90;99.90
21487;DHT22;10905;50.822;4.336;2022-08-19T12:17:53;26.00;99.90
21487;DHT22;10905;50.822;4.336;2022-08-19T12:20:22;25.80;99.90
21487;DHT22;10905;50.822;4.336;2022-08-19T12:22:47;25.70;99.90
21487;DHT22;10905;50.822;4.336;2022-08-19T12:25:13;25.70;99.90
21487;DHT22;10905;50.822;4.336;2022-08-19T12:27:39;25.90;99.90
21487;DHT22;10905;50.822;4.336;2022-08-19T12:30:05;25.80;99.90
21487;DHT22;10905;50.822;4.336;2022-08-19T12:32:31;25.80;99.90
21487;DHT22;10905;50.822;4.336;2022-08-19T12:34:57;25.90;99.90
21487;DHT22;10905;50.822;4.336;2022-08-19T12:37:22;25.90;99.90
21487;DHT22;10905;50.822;4.336;2022-08-19T12:39:48;25.70;99.90
21487;DHT22;10905;50.822;4.336;2022-08-19T12:42:14;25.90;99.90
21487;DHT22;10905;50.822;4.336;2022-08-19T12:44:40;26.10;99.90
21487;DHT22;10905;50.822;4.336;2022-08-19T12:47:06;26.30;99.90
21487;DHT22;10905;50.822;4.336;2022-08-19T12:49:32;26.40;99.90
21487;DHT22;10905;50.822;4.336;2022-08-19T12:52:05;26.40;99.90
21487;DHT22;10905;50.822;4.336;2022-08-19T12:54:30;26.40;99.90
21487;DHT22;10905;50.822;4.336;2022-08-19T12:56:56;26.60;99.90
21487;DHT22;10905;50.822;4.336;2022-08-19T12:59:22;26.60;99.90
21487;DHT22;10905;50.822;4.336;2022-08-19T13:01:48;26.60;99.90
21487;DHT22;10905;50.822;4.336;2022-08-19T13:04:13;26.10;99.90
21487;DHT22;10905;50.822;4.336;2022-08-19T13:06:39;26.20;99.90
21487;DHT22;10905;50.822;4.336;2022-08-19T13:09:04;26.20;99.90
21487;DHT22;10905;50.822;4.336;2022-08-19T13:11:30;26.10;99.90
21487;DHT22;10905;50.822;4.336;2022-08-19T13:14:00;25.90;99.90
21487;DHT22;10905;50.822;4.336;2022-08-19T13:16:25;26.00;99.90
21487;DHT22;10905;50.822;4.336;2022-08-19T13:18:53;25.90;99.90
21487;DHT22;10905;50.822;4.336;2022-08-19T13:21:19;25.70;99.90
21487;DHT22;10905;50.822;4.336;2022-08-19T13:23:45;25.50;99.90
21487;DHT22;10905;50.822;4.336;2022-08-19T13:26:13;25.40;99.90
21487;DHT22;10905;50.822;4.336;2022-08-19T13:28:39;25.50;99.90
21487;DHT22;10905;50.822;4.336;2022-08-19T13:31:24;25.40;99.90
21487;DHT22;10905;50.822;4.336;2022-08-19T13:34:09;25.50;99.90
21487;DHT22;10905;50.822;4.336;2022-08-19T13:36:35;25.90;99.90
21487;DHT22;10905;50.822;4.336;2022-08-19T13:39:00;26.00;99.90
21487;DHT22;10905;50.822;4.336;2022-08-19T13:41:26;26.20;99.90
21487;DHT22;10905;50.822;4.336;2022-08-19T13:43:52;26.10;99.90
21487;DHT22;10905;50.822;4.336;2022-08-19T13:46:17;26.20;99.90
21487;DHT22;10905;50.822;4.336;2022-08-19T13:48:45;26.30;99.90
21487;DHT22;10905;50.822;4.336;2022-08-19T13:51:10;26.20;99.90
21487;DHT22;10905;50.822;4.336;2022-08-19T13:53:36;26.10;99.90
21487;DHT22;10905;50.822;4.336;2022-08-19T13:56:06;25.90;99.90
21487;DHT22;10905;50.822;4.336;2022-08-19T13:58:32;26.00;99.90
21487;DHT22;10905;50.822;4.336;2022-08-19T14:00:58;26.00;99.90
21487;DHT22;10905;50.822;4.336;2022-08-19T14:03:24;25.80;99.90
21487;DHT22;10905;50.822;4.336;2022-08-19T14:05:50;25.50;99.90
21487;DHT22;10905;50.822;4.336;2022-08-19T14:08:15;25.20;99.90
21487;DHT22;10905;50.822;4.336;2022-08-19T14:10:41;25.10;99.90
21487;DHT22;10905;50.822;4.336;2022-08-19T14:13:09;25.00;99.90
21487;DHT22;10905;50.822;4.336;2022-08-19T14:15:34;24.70;99.90
21487;DHT22;10905;50.822;4.336;2022-08-19T14:18:01;24.60;99.90
21487;DHT22;10905;50.822;4.336;2022-08-19T14:20:26;24.40;99.90
21487;DHT22;10905;50.822;4.336;2022-08-19T14:22:52;24.60;99.90
21487;DHT22;10905;50.822;4.336;2022-08-19T14:25:19;24.60;99.90
21487;DHT22;10905;50.822;4.336;2022-08-19T14:27:46;24.70;99.90
21487;DHT22;10905;50.822;4.336;2022-08-19T14:30:12;24.80;99.90
21487;DHT22;10905;50.822;4.336;2022-08-19T14:32:38;24.70;99.90
21487;DHT22;10905;50.822;4.336;2022-08-19T14:35:04;24.70;99.90
21487;DHT22;10905;50.822;4.336;2022-08-19T14:37:30;24.70;99.90
21487;DHT22;10905;50.822;4.336;2022-08-19T14:39:56;24.60;99.90
21487;DHT22;10905;50.822;4.336;2022-08-19T14:42:21;24.20;99.90
21487;DHT22;10905;50.822;4.336;2022-08-19T14:44:47;24.10;99.90
21487;DHT22;10905;50.822;4.336;2022-08-19T14:47:12;24.10;99.90
21487;DHT22;10905;50.822;4.336;2022-08-19T14:49:38;24.00;99.90
21487;DHT22;10905;50.822;4.336;2022-08-19T14:52:04;24.10;99.90
21487;DHT22;10905;50.822;4.336;2022-08-19T14:54:30;24.30;99.90
21487;DHT22;10905;50.822;4.336;2022-08-19T14:56:56;24.60;99.90
21487;DHT22;10905;50.822;4.336;2022-08-19T14:59:22;24.80;99.90
21487;DHT22;10905;50.822;4.336;2022-08-19T15:01:47;25.10;99.90
21487;DHT22;10905;50.822;4.336;2022-08-19T15:04:13;25.40;99.90
21487;DHT22;10905;50.822;4.336;2022-08-19T15:06:38;25.40;99.90
21487;DHT22;10905;50.822;4.336;2022-08-19T15:09:04;25.50;99.90
21487;DHT22;10905;50.822;4.336;2022-08-19T15:11:30;25.40;99.90
21487;DHT22;10905;50.822;4.336;2022-08-19T15:13:57;25.30;99.90
21487;DHT22;10905;50.822;4.336;2022-08-19T15:16:23;25.20;99.90
21487;DHT22;10905;50.822;4.336;2022-08-19T15:18:51;25.30;99.90
21487;DHT22;10905;50.822;4.336;2022-08-19T15:21:17;25.40;99.90
21487;DHT22;10905;50.822;4.336;2022-08-19T15:23:47;25.40;99.90
21487;DHT22;10905;50.822;4.336;2022-08-19T15:26:13;25.60;99.90
21487;DHT22;10905;50.822;4.336;2022-08-19T15:28:39;25.80;99.90
21487;DHT22;10905;50.822;4.336;2022-08-19T15:31:05;25.80;99.90
21487;DHT22;10905;50.822;4.336;2022-08-19T15:33:31;25.70;99.90